sensor_id;sensor_type;location;lat;lon;timestamp;temperature;humidity
22167;DHT22;11249;52.468;13.776;2022-10-13T00:01:49;4.90;99.90
22167;DHT22;11249;52.468;13.776;2022-10-13T00:04:16;4.90;99.90
22167;DHT22;11249;52.468;13.776;2022-10-13T00:06:42;4.90;99.90
22167;DHT22;11249;52.468;13.776;2022-10-13T00:09:09;4.90;99.90
22167;DHT22;11249;52.468;13.776;2022-10-13T00:11:36;4.90;99.90
22167;DHT22;11249;52.468;13.776;2022-10-13T00:14:03;4.80;99.90
22167;DHT22;11249;52.468;13.776;2022-10-13T00:16:31;4.80;99.90
22167;DHT22;11249;52.468;13.776;2022-10-13T00:18:58;4.80;99.90
22167;DHT22;11249;52.468;13.776;2022-10-13T00:21:26;4.80;99.90
22167;DHT22;11249;52.468;13.776;2022-10-13T00:23:53;4.70;99.90
22167;DHT22;11249;52.468;13.776;2022-10-13T00:26:22;4.70;99.90
22167;DHT22;11249;52.468;13.776;2022-10-13T00:28:49;4.70;99.90
22167;DHT22;11249;52.468;13.776;2022-10-13T00:31:24;4.70;99.90
22167;DHT22;11249;52.468;13.776;2022-10-13T00:33:52;4.60;99.90
22167;DHT22;11249;52.468;13.776;2022-10-13T00:36:19;4.60;99.90
22167;DHT22;11249;52.468;13.776;2022-10-13T00:38:46;4.60;99.90
22167;DHT22;11249;52.468;13.776;2022-10-13T00:41:13;4.60;99.90
22167;DHT22;11249;52.468;13.776;2022-10-13T00:46:18;4.50;99.90
22167;DHT22;11249;52.468;13.776;2022-10-13T00:48:46;4.50;99.90
22167;DHT22;11249;52.468;13.776;2022-10-13T00:51:15;4.50;99.90
22167;DHT22;11249;52.468;13.776;2022-10-13T00:53:44;4.50;99.90
22167;DHT22;11249;52.468;13.776;2022-10-13T00:56:12;4.50;99.90
22167;DHT22;11249;52.468;13.776;2022-10-13T00:58:41;4.40;99.90
22167;DHT22;11249;52.468;13.776;2022-10-13T01:01:09;4.50;99.90
22167;DHT22;11249;52.468;13.776;2022-10-13T01:03:36;4.50;99.90
22167;DHT22;11249;52.468;13.776;2022-10-13T01:06:04;4.50;99.90
22167;DHT22;11249;52.468;13.776;2022-10-13T01:08:31;4.40;99.90
22167;DHT22;11249;52.468;13.776;2022-10-13T01:18:54;4.60;99.90
22167;DHT22;11249;52.468;13.776;2022-10-13T01:24:39;4.60;99.90
22167;DHT22;11249;52.468;13.776;2022-10-13T01:30:18;4.70;99.90
22167;DHT22;11249;52.468;13.776;2022-10-13T01:33:14;4.80;99.90
22167;DHT22;11249;52.468;13.776;2022-10-13T01:36:04;4.80;99.90
22167;DHT22;11249;52.468;13.776;2022-10-13T01:38:40;4.80;99.90
22167;DHT22;11249;52.468;13.776;2022-10-13T01:41:28;4.90;99.90
22167;DHT22;11249;52.468;13.776;2022-10-13T01:44:20;5.00;99.90
22167;DHT22;11249;52.468;13.776;2022-10-13T01:46:49;4.90;99.90
22167;DHT22;11249;52.468;13.776;2022-10-13T01:49:18;4.90;99.90
22167;DHT22;11249;52.468;13.776;2022-10-13T01:51:48;5.00;99.90
22167;DHT22;11249;52.468;13.776;2022-10-13T01:54:15;5.00;99.90
22167;DHT22;11249;52.468;13.776;2022-10-13T01:56:51;5.00;99.90
22167;DHT22;11249;52.468;13.776;2022-10-13T01:59:17;5.00;99.90
22167;DHT22;11249;52.468;13.776;2022-10-13T02:01:53;5.00;99.90
22167;DHT22;11249;52.468;13.776;2022-10-13T02:07:23;5.00;99.90
22167;DHT22;11249;52.468;13.776;2022-10-13T02:12:51;5.00;99.90
22167;DHT22;11249;52.468;13.776;2022-10-13T02:15:24;5.00;99.90
22167;DHT22;11249;52.468;13.776;2022-10-13T02:17:53;5.00;99.90
22167;DHT22;11249;52.468;13.776;2022-10-13T02:20:21;5.00;99.90
22167;DHT22;11249;52.468;13.776;2022-10-13T02:22:53;5.00;99.90
22167;DHT22;11249;52.468;13.776;2022-10-13T02:25:21;5.00;99.90
22167;DHT22;11249;52.468;13.776;2022-10-13T02:27:48;5.10;99.90
22167;DHT22;11249;52.468;13.776;2022-10-13T02:30:22;5.20;99.90
22167;DHT22;11249;52.468;13.776;2022-10-13T02:32:49;5.20;99.90
22167;DHT22;11249;52.468;13.776;2022-10-13T02:35:16;5.30;99.90
22167;DHT22;11249;52.468;13.776;2022-10-13T02:37:43;5.40;99.90
22167;DHT22;11249;52.468;13.776;2022-10-13T02:40:10;5.50;99.90
22167;DHT22;11249;52.468;13.776;2022-10-13T02:42:37;5.50;99.90
22167;DHT22;11249;52.468;13.776;2022-10-13T02:45:04;5.60;99.90
22167;DHT22;11249;52.468;13.776;2022-10-13T02:47:31;5.60;99.90
22167;DHT22;11249;52.468;13.776;2022-10-13T02:49:57;5.70;99.90
22167;DHT22;11249;52.468;13.776;2022-10-13T02:52:24;5.70;99.90
22167;DHT22;11249;52.468;13.776;2022-10-13T02:54:51;5.70;99.90
22167;DHT22;11249;52.468;13.776;2022-10-13T02:57:17;5.70;99.90
22167;DHT22;11249;52.468;13.776;2022-10-13T02:59:44;5.70;99.90
22167;DHT22;11249;52.468;13.776;2022-10-13T03:02:11;5.70;99.90
22167;DHT22;11249;52.468;13.776;2022-10-13T03:04:38;5.70;99.90
22167;DHT22;11249;52.468;13.776;2022-10-13T03:07:05;5.60;99.90
22167;DHT22;11249;52.468;13.776;2022-10-13T03:09:32;5.60;99.90
22167;DHT22;11249;52.468;13.776;2022-10-13T03:11:59;5.60;99.90
22167;DHT22;11249;52.468;13.776;2022-10-13T03:14:26;5.50;99.90
22167;DHT22;11249;52.468;13.776;2022-10-13T03:16:52;5.50;99.90
22167;DHT22;11249;52.468;13.776;2022-10-13T03:19:19;5.40;99.90
22167;DHT22;11249;52.468;13.776;2022-10-13T03:21:46;5.40;99.90
22167;DHT22;11249;52.468;13.776;2022-10-13T03:24:12;5.40;99.90
22167;DHT22;11249;52.468;13.776;2022-10-13T03:26:39;5.40;99.90
22167;DHT22;11249;52.468;13.776;2022-10-13T03:29:06;5.30;99.90
22167;DHT22;11249;52.468;13.776;2022-10-13T03:31:32;5.30;99.90
22167;DHT22;11249;52.468;13.776;2022-10-13T03:33:59;5.20;99.90
22167;DHT22;11249;52.468;13.776;2022-10-13T03:36:26;5.20;99.90
22167;DHT22;11249;52.468;13.776;2022-10-13T03:38:52;5.20;99.90
22167;DHT22;11249;52.468;13.776;2022-10-13T03:41:19;5.20;99.90
22167;DHT22;11249;52.468;13.776;2022-10-13T03:43:46;5.20;99.90
22167;DHT22;11249;52.468;13.776;2022-10-13T03:46:14;5.20;99.90
22167;DHT22;11249;52.468;13.776;2022-10-13T03:48:42;5.20;99.90
22167;DHT22;11249;52.468;13.776;2022-10-13T03:51:12;5.20;99.90
22167;DHT22;11249;52.468;13.776;2022-10-13T03:53:39;5.20;99.90
22167;DHT22;11249;52.468;13.776;2022-10-13T03:56:06;5.20;99.90
22167;DHT22;11249;52.468;13.776;2022-10-13T03:58:33;5.20;99.90
22167;DHT22;11249;52.468;13.776;2022-10-13T04:01:04;5.20;99.90
22167;DHT22;11249;52.468;13.776;2022-10-13T04:03:32;5.10;99.90
22167;DHT22;11249;52.468;13.776;2022-10-13T04:06:00;5.10;99.90
22167;DHT22;11249;52.468;13.776;2022-10-13T04:08:29;5.10;99.90
22167;DHT22;11249;52.468;13.776;2022-10-13T04:11:04;5.10;99.90
22167;DHT22;11249;52.468;13.776;2022-10-13T04:13:31;5.10;99.90
22167;DHT22;11249;52.468;13.776;2022-10-13T04:16:28;5.10;99.90
22167;DHT22;11249;52.468;13.776;2022-10-13T04:18:58;5.10;99.90
22167;DHT22;11249;52.468;13.776;2022-10-13T04:21:26;5.00;99.90
22167;DHT22;11249;52.468;13.776;2022-10-13T04:23:57;5.10;99.90
22167;DHT22;11249;52.468;13.776;2022-10-13T04:26:26;5.10;99.90
22167;DHT22;11249;52.468;13.776;2022-10-13T04:28:55;5.10;99.90
22167;DHT22;11249;52.468;13.776;2022-10-13T04:31:22;5.00;99.90
22167;DHT22;11249;52.468;13.776;2022-10-13T04:33:50;5.00;99.90
22167;DHT22;11249;52.468;13.776;2022-10-13T04:36:17;5.00;99.90
22167;DHT22;11249;52.468;13.776;2022-10-13T04:38:44;5.00;99.90
22167;DHT22;11249;52.468;13.776;2022-10-13T04:41:12;5.00;99.90
22167;DHT22;11249;52.468;13.776;2022-10-13T04:43:39;5.00;99.90
22167;DHT22;11249;52.468;13.776;2022-10-13T04:46:13;5.10;99.90
22167;DHT22;11249;52.468;13.776;2022-10-13T04:48:40;5.10;99.90
22167;DHT22;11249;52.468;13.776;2022-10-13T04:51:09;5.20;99.90
22167;DHT22;11249;52.468;13.776;2022-10-13T04:53:37;5.20;99.90
22167;DHT22;11249;52.468;13.776;2022-10-13T04:56:10;5.20;99.90
22167;DHT22;11249;52.468;13.776;2022-10-13T04:58:37;5.20;99.90
22167;DHT22;11249;52.468;13.776;2022-10-13T05:01:06;5.30;99.90
22167;DHT22;11249;52.468;13.776;2022-10-13T05:03:34;5.30;99.90
22167;DHT22;11249;52.468;13.776;2022-10-13T05:06:00;5.30;99.90
22167;DHT22;11249;52.468;13.776;2022-10-13T05:08:27;5.40;99.90
22167;DHT22;11249;52.468;13.776;2022-10-13T05:10:55;5.40;99.90
22167;DHT22;11249;52.468;13.776;2022-10-13T05:13:23;5.40;99.90
22167;DHT22;11249;52.468;13.776;2022-10-13T05:15:50;5.50;99.90
22167;DHT22;11249;52.468;13.776;2022-10-13T05:18:17;5.50;99.90
22167;DHT22;11249;52.468;13.776;2022-10-13T05:20:44;5.50;99.90
22167;DHT22;11249;52.468;13.776;2022-10-13T05:23:13;5.60;99.90
22167;DHT22;11249;52.468;13.776;2022-10-13T05:25:40;5.60;99.90
22167;DHT22;11249;52.468;13.776;2022-10-13T05:28:07;5.70;99.90
22167;DHT22;11249;52.468;13.776;2022-10-13T05:30:34;5.70;99.90
22167;DHT22;11249;52.468;13.776;2022-10-13T05:33:01;5.80;99.90
22167;DHT22;11249;52.468;13.776;2022-10-13T05:35:27;5.80;99.90
22167;DHT22;11249;52.468;13.776;2022-10-13T05:37:54;5.90;99.90
22167;DHT22;11249;52.468;13.776;2022-10-13T05:40:21;6.00;99.90
22167;DHT22;11249;52.468;13.776;2022-10-13T05:42:51;6.00;99.90
22167;DHT22;11249;52.468;13.776;2022-10-13T05:45:20;6.10;99.90
22167;DHT22;11249;52.468;13.776;2022-10-13T05:47:47;6.20;99.90
22167;DHT22;11249;52.468;13.776;2022-10-13T05:50:14;6.20;99.90
22167;DHT22;11249;52.468;13.776;2022-10-13T05:52:41;6.30;99.90
22167;DHT22;11249;52.468;13.776;2022-10-13T05:55:10;6.30;99.90
22167;DHT22;11249;52.468;13.776;2022-10-13T05:57:44;6.30;99.90
22167;DHT22;11249;52.468;13.776;2022-10-13T06:00:16;6.30;99.90
22167;DHT22;11249;52.468;13.776;2022-10-13T06:02:49;6.40;99.90
22167;DHT22;11249;52.468;13.776;2022-10-13T06:05:19;6.40;99.90
22167;DHT22;11249;52.468;13.776;2022-10-13T06:07:46;6.50;99.90
22167;DHT22;11249;52.468;13.776;2022-10-13T06:10:14;6.60;99.90
22167;DHT22;11249;52.468;13.776;2022-10-13T06:12:41;6.60;99.90
22167;DHT22;11249;52.468;13.776;2022-10-13T06:15:08;6.80;99.90
22167;DHT22;11249;52.468;13.776;2022-10-13T06:17:36;6.80;99.90
22167;DHT22;11249;52.468;13.776;2022-10-13T06:20:04;6.90;99.90
22167;DHT22;11249;52.468;13.776;2022-10-13T06:22:36;7.00;99.90
22167;DHT22;11249;52.468;13.776;2022-10-13T06:25:05;7.00;99.90
22167;DHT22;11249;52.468;13.776;2022-10-13T06:27:32;7.10;99.90
22167;DHT22;11249;52.468;13.776;2022-10-13T06:29:59;7.20;99.90
22167;DHT22;11249;52.468;13.776;2022-10-13T06:32:26;7.30;99.90
22167;DHT22;11249;52.468;13.776;2022-10-13T06:34:53;7.30;99.90
22167;DHT22;11249;52.468;13.776;2022-10-13T06:37:20;7.40;99.90
22167;DHT22;11249;52.468;13.776;2022-10-13T06:39:52;7.40;99.90
22167;DHT22;11249;52.468;13.776;2022-10-13T06:42:19;7.50;99.90
22167;DHT22;11249;52.468;13.776;2022-10-13T06:44:46;7.50;99.90
22167;DHT22;11249;52.468;13.776;2022-10-13T06:47:13;7.60;99.90
22167;DHT22;11249;52.468;13.776;2022-10-13T06:49:40;7.70;99.90
22167;DHT22;11249;52.468;13.776;2022-10-13T06:52:08;7.70;99.90
22167;DHT22;11249;52.468;13.776;2022-10-13T06:54:34;7.80;99.90
22167;DHT22;11249;52.468;13.776;2022-10-13T06:57:04;7.80;99.90
22167;DHT22;11249;52.468;13.776;2022-10-13T06:59:31;7.80;99.90
22167;DHT22;11249;52.468;13.776;2022-10-13T07:01:58;7.90;99.90
22167;DHT22;11249;52.468;13.776;2022-10-13T07:04:25;7.90;99.90
22167;DHT22;11249;52.468;13.776;2022-10-13T07:06:53;7.90;99.90
22167;DHT22;11249;52.468;13.776;2022-10-13T07:09:20;8.00;99.90
22167;DHT22;11249;52.468;13.776;2022-10-13T07:11:46;8.10;99.90
22167;DHT22;11249;52.468;13.776;2022-10-13T07:14:14;8.10;99.90
22167;DHT22;11249;52.468;13.776;2022-10-13T07:16:41;8.20;99.90
22167;DHT22;11249;52.468;13.776;2022-10-13T07:19:08;8.30;99.90
22167;DHT22;11249;52.468;13.776;2022-10-13T07:21:35;8.30;99.90
22167;DHT22;11249;52.468;13.776;2022-10-13T07:24:01;8.40;99.90
22167;DHT22;11249;52.468;13.776;2022-10-13T07:26:29;8.40;99.90
22167;DHT22;11249;52.468;13.776;2022-10-13T07:28:57;8.40;99.90
22167;DHT22;11249;52.468;13.776;2022-10-13T07:31:24;8.50;99.90
22167;DHT22;11249;52.468;13.776;2022-10-13T07:33:52;8.50;99.90
22167;DHT22;11249;52.468;13.776;2022-10-13T07:36:19;8.60;99.90
22167;DHT22;11249;52.468;13.776;2022-10-13T07:38:46;8.60;99.90
22167;DHT22;11249;52.468;13.776;2022-10-13T07:41:13;8.60;99.90
22167;DHT22;11249;52.468;13.776;2022-10-13T07:43:40;8.60;99.90
22167;DHT22;11249;52.468;13.776;2022-10-13T07:46:07;8.50;99.90
22167;DHT22;11249;52.468;13.776;2022-10-13T07:48:35;8.60;99.90
22167;DHT22;11249;52.468;13.776;2022-10-13T07:51:06;8.60;99.90
22167;DHT22;11249;52.468;13.776;2022-10-13T07:53:34;8.60;99.90
22167;DHT22;11249;52.468;13.776;2022-10-13T07:56:02;8.70;99.90
22167;DHT22;11249;52.468;13.776;2022-10-13T07:58:29;8.70;99.90
22167;DHT22;11249;52.468;13.776;2022-10-13T08:00:57;8.80;99.90
22167;DHT22;11249;52.468;13.776;2022-10-13T08:03:25;8.80;99.90
22167;DHT22;11249;52.468;13.776;2022-10-13T08:05:53;8.90;99.90
22167;DHT22;11249;52.468;13.776;2022-10-13T08:08:20;9.00;99.90
22167;DHT22;11249;52.468;13.776;2022-10-13T08:10:47;9.10;99.90
22167;DHT22;11249;52.468;13.776;2022-10-13T08:13:14;9.10;99.90
22167;DHT22;11249;52.468;13.776;2022-10-13T08:15:43;9.30;99.90
22167;DHT22;11249;52.468;13.776;2022-10-13T08:18:11;9.30;99.90
22167;DHT22;11249;52.468;13.776;2022-10-13T08:20:43;9.40;99.90
22167;DHT22;11249;52.468;13.776;2022-10-13T08:23:11;9.40;99.90
22167;DHT22;11249;52.468;13.776;2022-10-13T08:25:40;9.50;99.90
22167;DHT22;11249;52.468;13.776;2022-10-13T08:28:16;9.60;99.90
22167;DHT22;11249;52.468;13.776;2022-10-13T08:30:44;9.60;99.90
22167;DHT22;11249;52.468;13.776;2022-10-13T08:33:12;9.70;99.90
22167;DHT22;11249;52.468;13.776;2022-10-13T08:35:38;9.80;99.90
22167;DHT22;11249;52.468;13.776;2022-10-13T08:38:05;9.90;99.90
22167;DHT22;11249;52.468;13.776;2022-10-13T08:40:33;10.00;99.90
22167;DHT22;11249;52.468;13.776;2022-10-13T08:43:04;10.10;99.90
22167;DHT22;11249;52.468;13.776;2022-10-13T08:45:31;10.20;99.90
22167;DHT22;11249;52.468;13.776;2022-10-13T08:48:17;10.40;99.90
22167;DHT22;11249;52.468;13.776;2022-10-13T08:50:48;10.60;99.90
22167;DHT22;11249;52.468;13.776;2022-10-13T08:53:36;10.80;99.90
22167;DHT22;11249;52.468;13.776;2022-10-13T08:56:14;11.00;99.90
22167;DHT22;11249;52.468;13.776;2022-10-13T08:58:42;11.20;99.90
22167;DHT22;11249;52.468;13.776;2022-10-13T09:06:31;11.80;99.90
22167;DHT22;11249;52.468;13.776;2022-10-13T09:09:07;12.00;99.90
22167;DHT22;11249;52.468;13.776;2022-10-13T09:11:40;12.10;99.90
22167;DHT22;11249;52.468;13.776;2022-10-13T09:14:09;12.20;99.90
22167;DHT22;11249;52.468;13.776;2022-10-13T09:16:42;12.40;99.90
22167;DHT22;11249;52.468;13.776;2022-10-13T09:19:28;12.50;99.90
22167;DHT22;11249;52.468;13.776;2022-10-13T09:24:43;12.70;99.90
22167;DHT22;11249;52.468;13.776;2022-10-13T09:27:14;12.80;99.90
22167;DHT22;11249;52.468;13.776;2022-10-13T09:29:43;12.90;99.90
22167;DHT22;11249;52.468;13.776;2022-10-13T09:32:17;13.00;99.90
22167;DHT22;11249;52.468;13.776;2022-10-13T09:34:45;13.10;99.90
22167;DHT22;11249;52.468;13.776;2022-10-13T09:37:24;13.20;99.90
22167;DHT22;11249;52.468;13.776;2022-10-13T09:40:12;13.30;99.90
22167;DHT22;11249;52.468;13.776;2022-10-13T09:42:39;13.40;99.90
22167;DHT22;11249;52.468;13.776;2022-10-13T09:45:20;13.50;99.90
22167;DHT22;11249;52.468;13.776;2022-10-13T09:47:52;13.70;99.90
22167;DHT22;11249;52.468;13.776;2022-10-13T09:50:24;13.80;99.90
22167;DHT22;11249;52.468;13.776;2022-10-13T09:52:52;13.90;99.90
22167;DHT22;11249;52.468;13.776;2022-10-13T09:55:31;14.00;99.90
22167;DHT22;11249;52.468;13.776;2022-10-13T09:58:16;14.00;99.90
22167;DHT22;11249;52.468;13.776;2022-10-13T10:00:45;14.10;99.90
22167;DHT22;11249;52.468;13.776;2022-10-13T10:03:20;14.20;99.90
22167;DHT22;11249;52.468;13.776;2022-10-13T10:05:53;14.30;99.90
22167;DHT22;11249;52.468;13.776;2022-10-13T10:11:43;14.40;99.90
22167;DHT22;11249;52.468;13.776;2022-10-13T10:14:29;14.50;99.90
22167;DHT22;11249;52.468;13.776;2022-10-13T10:17:26;14.50;99.90
22167;DHT22;11249;52.468;13.776;2022-10-13T10:23:00;14.70;99.90
22167;DHT22;11249;52.468;13.776;2022-10-13T10:25:41;14.80;99.90
22167;DHT22;11249;52.468;13.776;2022-10-13T10:31:36;14.90;99.90
22167;DHT22;11249;52.468;13.776;2022-10-13T10:37:09;15.20;99.90
22167;DHT22;11249;52.468;13.776;2022-10-13T10:39:53;15.20;99.90
22167;DHT22;11249;52.468;13.776;2022-10-13T10:45:21;15.40;99.90
22167;DHT22;11249;52.468;13.776;2022-10-13T10:48:00;15.40;99.90
22167;DHT22;11249;52.468;13.776;2022-10-13T10:50:28;15.50;99.90
22167;DHT22;11249;52.468;13.776;2022-10-13T10:53:26;15.50;99.90
22167;DHT22;11249;52.468;13.776;2022-10-13T10:56:03;15.50;99.90
22167;DHT22;11249;52.468;13.776;2022-10-13T10:58:41;15.60;99.90
22167;DHT22;11249;52.468;13.776;2022-10-13T11:01:30;15.60;99.90
22167;DHT22;11249;52.468;13.776;2022-10-13T11:06:50;15.80;99.90
22167;DHT22;11249;52.468;13.776;2022-10-13T11:17:26;15.90;99.90
22167;DHT22;11249;52.468;13.776;2022-10-13T11:19:53;16.00;99.90
22167;DHT22;11249;52.468;13.776;2022-10-13T11:22:30;16.00;99.90
22167;DHT22;11249;52.468;13.776;2022-10-13T11:24:59;16.10;99.90
22167;DHT22;11249;52.468;13.776;2022-10-13T11:27:36;16.00;99.90
22167;DHT22;11249;52.468;13.776;2022-10-13T11:30:08;16.00;99.90
22167;DHT22;11249;52.468;13.776;2022-10-13T11:32:51;16.10;99.90
22167;DHT22;11249;52.468;13.776;2022-10-13T11:35:24;16.10;99.90
22167;DHT22;11249;52.468;13.776;2022-10-13T11:43:29;16.20;99.90
22167;DHT22;11249;52.468;13.776;2022-10-13T11:46:06;16.30;99.90
22167;DHT22;11249;52.468;13.776;2022-10-13T11:51:20;16.40;99.90
22167;DHT22;11249;52.468;13.776;2022-10-13T11:56:52;16.90;99.90
22167;DHT22;11249;52.468;13.776;2022-10-13T11:59:22;17.20;99.90
22167;DHT22;11249;52.468;13.776;2022-10-13T12:01:54;17.40;99.90
22167;DHT22;11249;52.468;13.776;2022-10-13T12:04:23;17.50;99.90
22167;DHT22;11249;52.468;13.776;2022-10-13T12:06:57;17.60;99.90
22167;DHT22;11249;52.468;13.776;2022-10-13T12:09:25;17.70;99.90
22167;DHT22;11249;52.468;13.776;2022-10-13T12:11:59;17.70;99.90
22167;DHT22;11249;52.468;13.776;2022-10-13T12:14:31;17.90;99.90
22167;DHT22;11249;52.468;13.776;2022-10-13T12:17:01;18.10;99.90
22167;DHT22;11249;52.468;13.776;2022-10-13T12:19:31;18.30;99.90
22167;DHT22;11249;52.468;13.776;2022-10-13T12:21:59;18.40;99.90
22167;DHT22;11249;52.468;13.776;2022-10-13T12:24:28;18.40;99.90
22167;DHT22;11249;52.468;13.776;2022-10-13T12:26:57;18.30;99.90
22167;DHT22;11249;52.468;13.776;2022-10-13T12:29:26;18.50;99.90
22167;DHT22;11249;52.468;13.776;2022-10-13T12:31:55;18.50;99.90
22167;DHT22;11249;52.468;13.776;2022-10-13T12:34:29;18.60;99.90
22167;DHT22;11249;52.468;13.776;2022-10-13T12:37:10;18.60;99.90
22167;DHT22;11249;52.468;13.776;2022-10-13T12:39:39;18.50;99.90
22167;DHT22;11249;52.468;13.776;2022-10-13T12:42:08;18.40;99.90
22167;DHT22;11249;52.468;13.776;2022-10-13T12:44:37;18.40;99.90
22167;DHT22;11249;52.468;13.776;2022-10-13T12:47:04;18.40;99.90
22167;DHT22;11249;52.468;13.776;2022-10-13T12:49:32;18.30;99.90
22167;DHT22;11249;52.468;13.776;2022-10-13T12:52:11;18.10;99.90
22167;DHT22;11249;52.468;13.776;2022-10-13T12:54:51;18.00;99.90
22167;DHT22;11249;52.468;13.776;2022-10-13T12:57:33;17.90;99.90
22167;DHT22;11249;52.468;13.776;2022-10-13T13:02:31;17.90;99.90
22167;DHT22;11249;52.468;13.776;2022-10-13T13:04:58;17.90;99.90
22167;DHT22;11249;52.468;13.776;2022-10-13T13:07:31;17.90;99.90
22167;DHT22;11249;52.468;13.776;2022-10-13T13:12:35;18.00;99.90
22167;DHT22;11249;52.468;13.776;2022-10-13T13:17:51;17.90;99.90
22167;DHT22;11249;52.468;13.776;2022-10-13T13:20:32;17.80;99.90
22167;DHT22;11249;52.468;13.776;2022-10-13T13:23:00;17.70;99.90
22167;DHT22;11249;52.468;13.776;2022-10-13T13:25:27;17.70;99.90
22167;DHT22;11249;52.468;13.776;2022-10-13T13:27:53;17.60;99.90
22167;DHT22;11249;52.468;13.776;2022-10-13T13:30:22;17.60;99.90
22167;DHT22;11249;52.468;13.776;2022-10-13T13:32:49;17.50;99.90
22167;DHT22;11249;52.468;13.776;2022-10-13T13:35:16;17.50;99.90
22167;DHT22;11249;52.468;13.776;2022-10-13T13:37:45;17.50;99.90
22167;DHT22;11249;52.468;13.776;2022-10-13T13:40:16;17.40;99.90
22167;DHT22;11249;52.468;13.776;2022-10-13T13:42:43;17.30;99.90
22167;DHT22;11249;52.468;13.776;2022-10-13T13:45:14;17.30;99.90
22167;DHT22;11249;52.468;13.776;2022-10-13T13:47:41;17.30;99.90
22167;DHT22;11249;52.468;13.776;2022-10-13T13:52:46;17.10;99.90
22167;DHT22;11249;52.468;13.776;2022-10-13T13:55:37;17.10;99.90
22167;DHT22;11249;52.468;13.776;2022-10-13T13:58:04;17.10;99.90
22167;DHT22;11249;52.468;13.776;2022-10-13T14:00:30;17.20;99.90
22167;DHT22;11249;52.468;13.776;2022-10-13T14:02:57;17.10;99.90
22167;DHT22;11249;52.468;13.776;2022-10-13T14:05:24;17.10;99.90
22167;DHT22;11249;52.468;13.776;2022-10-13T14:07:55;17.10;99.90
22167;DHT22;11249;52.468;13.776;2022-10-13T14:10:24;17.10;99.90
22167;DHT22;11249;52.468;13.776;2022-10-13T14:12:51;17.10;99.90
22167;DHT22;11249;52.468;13.776;2022-10-13T14:15:18;17.20;99.90
22167;DHT22;11249;52.468;13.776;2022-10-13T14:17:44;17.20;99.90
22167;DHT22;11249;52.468;13.776;2022-10-13T14:20:11;17.20;99.90
22167;DHT22;11249;52.468;13.776;2022-10-13T14:22:38;17.10;99.90
22167;DHT22;11249;52.468;13.776;2022-10-13T14:25:06;17.10;99.90
22167;DHT22;11249;52.468;13.776;2022-10-13T14:27:34;17.30;99.90
22167;DHT22;11249;52.468;13.776;2022-10-13T14:30:01;17.50;99.90
22167;DHT22;11249;52.468;13.776;2022-10-13T14:32:27;17.80;99.90
22167;DHT22;11249;52.468;13.776;2022-10-13T14:34:54;18.20;99.90
22167;DHT22;11249;52.468;13.776;2022-10-13T14:37:21;18.70;99.90
22167;DHT22;11249;52.468;13.776;2022-10-13T14:39:50;19.00;99.90
22167;DHT22;11249;52.468;13.776;2022-10-13T14:42:17;19.20;99.90
22167;DHT22;11249;52.468;13.776;2022-10-13T14:44:43;19.50;99.90
22167;DHT22;11249;52.468;13.776;2022-10-13T14:47:10;19.50;99.90
22167;DHT22;11249;52.468;13.776;2022-10-13T14:49:37;19.40;99.90
22167;DHT22;11249;52.468;13.776;2022-10-13T14:52:04;19.20;99.90
22167;DHT22;11249;52.468;13.776;2022-10-13T14:54:30;19.00;99.90
22167;DHT22;11249;52.468;13.776;2022-10-13T14:56:57;18.70;99.90
22167;DHT22;11249;52.468;13.776;2022-10-13T14:59:26;18.30;99.90
22167;DHT22;11249;52.468;13.776;2022-10-13T15:01:53;18.20;99.90
22167;DHT22;11249;52.468;13.776;2022-10-13T15:04:19;17.90;99.90
22167;DHT22;11249;52.468;13.776;2022-10-13T15:06:46;17.70;99.90
22167;DHT22;11249;52.468;13.776;2022-10-13T15:09:13;17.60;99.90
22167;DHT22;11249;52.468;13.776;2022-10-13T15:11:40;17.40;99.90
22167;DHT22;11249;52.468;13.776;2022-10-13T15:14:07;17.40;99.90
22167;DHT22;11249;52.468;13.776;2022-10-13T15:16:35;17.30;99.90
22167;DHT22;11249;52.468;13.776;2022-10-13T15:19:03;17.10;99.90
22167;DHT22;11249;52.468;13.776;2022-10-13T15:21:30;17.00;99.90
22167;DHT22;11249;52.468;13.776;2022-10-13T15:23:56;16.90;99.90
22167;DHT22;11249;52.468;13.776;2022-10-13T15:26:23;16.80;99.90
22167;DHT22;11249;52.468;13.776;2022-10-13T15:28:51;16.70;99.90
22167;DHT22;11249;52.468;13.776;2022-10-13T15:31:20;16.60;99.90
22167;DHT22;11249;52.468;13.776;2022-10-13T15:33:49;16.40;99.90
22167;DHT22;11249;52.468;13.776;2022-10-13T15:36:18;16.30;99.90
22167;DHT22;11249;52.468;13.776;2022-10-13T15:38:45;16.10;99.90
22167;DHT22;11249;52.468;13.776;2022-10-13T15:41:12;16.00;99.90
22167;DHT22;11249;52.468;13.776;2022-10-13T15:43:39;15.80;99.90
22167;DHT22;11249;52.468;13.776;2022-10-13T15:46:15;15.70;99.90
22167;DHT22;11249;52.468;13.776;2022-10-13T15:48:50;15.50;99.90
22167;DHT22;11249;52.468;13.776;2022-10-13T15:51:21;15.40;99.90
22167;DHT22;11249;52.468;13.776;2022-10-13T15:53:49;15.20;99.90
22167;DHT22;11249;52.468;13.776;2022-10-13T15:56:16;15.00;99.90
22167;DHT22;11249;52.468;13.776;2022-10-13T15:58:43;14.90;99.90
22167;DHT22;11249;52.468;13.776;2022-10-13T16:01:11;14.70;99.90
22167;DHT22;11249;52.468;13.776;2022-10-13T16:03:39;14.60;99.90
22167;DHT22;11249;52.468;13.776;2022-10-13T16:06:08;14.50;99.90
22167;DHT22;11249;52.468;13.776;2022-10-13T16:08:38;14.30;99.90
22167;DHT22;11249;52.468;13.776;2022-10-13T16:11:07;14.20;99.90
22167;DHT22;11249;52.468;13.776;2022-10-13T16:13:34;14.10;99.90
22167;DHT22;11249;52.468;13.776;2022-10-13T16:16:00;13.90;99.90
22167;DHT22;11249;52.468;13.776;2022-10-13T16:18:29;13.80;99.90
22167;DHT22;11249;52.468;13.776;2022-10-13T16:20:57;13.70;99.90
22167;DHT22;11249;52.468;13.776;2022-10-13T16:23:24;13.60;99.90
22167;DHT22;11249;52.468;13.776;2022-10-13T16:25:50;13.50;99.90
22167;DHT22;11249;52.468;13.776;2022-10-13T16:28:17;13.40;99.90
22167;DHT22;11249;52.468;13.776;2022-10-13T16:30:44;13.30;99.90
22167;DHT22;11249;52.468;13.776;2022-10-13T16:33:10;13.30;99.90
22167;DHT22;11249;52.468;13.776;2022-10-13T16:35:37;13.20;99.90
22167;DHT22;11249;52.468;13.776;2022-10-13T16:38:04;13.10;99.90
22167;DHT22;11249;52.468;13.776;2022-10-13T16:40:31;13.10;99.90
22167;DHT22;11249;52.468;13.776;2022-10-13T16:42:57;13.00;99.90
22167;DHT22;11249;52.468;13.776;2022-10-13T16:45:24;13.00;99.90
22167;DHT22;11249;52.468;13.776;2022-10-13T16:48:11;12.90;99.90
22167;DHT22;11249;52.468;13.776;2022-10-13T16:50:38;12.90;99.90
22167;DHT22;11249;52.468;13.776;2022-10-13T16:53:05;12.80;99.90
22167;DHT22;11249;52.468;13.776;2022-10-13T16:55:31;12.80;99.90
22167;DHT22;11249;52.468;13.776;2022-10-13T16:57:58;12.70;99.90
22167;DHT22;11249;52.468;13.776;2022-10-13T17:00:24;12.70;99.90